Redlake, Minnesota
Current Conditions -  °F | °C
As of 8:33 AM on Tuesday 21 Oct 2014 (Local Time) from KBJI Reporting Station
Clear Clear  
Wind Chill: 31°   Ceiling: Unl
Heat Index: 37°   Visibility: 10mi
Dew Point: 35°   Wind: 7mph
Humidity: 95%   Direction: 140°SE
Pressure: 30.12"   Gusts: NA
Location:  47.88°N, 95.02°W
Report Text: KBJI 211333Z AUTO 14006KT 10SM CLR 03/02 A3012 RMK AO2 T00250018
Loading
Personal Weather Stations






























Interactive Weather Map
Tropical Storm Tracking
New forecast layout! Learn more

10-Day Weather Forecast

Advertisements
Track Severe Weather on mobile